weather.gov     
National Weather Service

Terminal Aerodrome Forecast
NWS Homepage
This page is being discontinued on March 12, 2014.
The same data is available at this site. Please update your bookmarks.
Thank you, and we apologize for the inconvenience.
Please send an email to SR-SRH.Webmaster@noaa.gov with any concerns.


Current Version
Previous Version:    01  02  03  04  05  06  07  08  09  10  11  12  13  14  15  16  17  18  19  20  21  22  23  24  25  26  27  28  29  30  
   31  32  33  34  35  36  37  
[Printable]
216
FTUS43 KJKL 201300 AAA
TAFLOZ
TAF AMD
KLOZ 201317Z 2013/2112 VRB03KT P6SM BKN015 BKN025 BKN035
     FM201400 VRB03KT P6SM BKN025 BKN040
     FM201600 26007KT P6SM SCT040
     FM202200 VRB03KT P6SM SKC
     FM210600 VRB03KT 5SM BR VCTS SCT040CB=


U.S. Dept. of Commerce
NOAA National Weather Service
1325 East West Highway
Silver Spring, MD 20910
E-mail: w-nws.webmaster@noaa.gov
Page last modified: May 16, 2007
NATIONAL WEATHER SERVICE: for Safety, for Work, for Fun - FOR LIFE